Main page
METAR-TAF:

METAR-TAF

Airports :

Nanaimo Airport

Nanaimo, British Columbia, Canada

latitude: 49-03N, longitude: 123-52W, elevation: 28 m

Current weather observation

The report was made 6 hours and 9 minutes ago, at 04:00 UTC
Calm wind
Temperature 25°C
Humidity 57%
Pressure 1012 hPa
Visibility: 48.3 km
Clear sky

METAR: CYCD 170400Z 00000KT 30SM SKC 25/16 A2988 RMK LAST STFD OBS/NEXT 171300Z SLP119 DENSITY ALT 1400FT

Time: 03:09 (10:09 UTC)

Forecast

The report was made 10 hours and 29 minutes ago, at 23:40 UTC
Forecast valid from 17 at 00 UTC to 17 at 04 UTC
Wind 3 kt from variable directions
Visibility: 10 km
Clear sky

TAF: CYCD 162340Z 1700/1704 VRB03KT P6SM SKC RMK NXT FCST BY 171500Z

Weather observations and forecasts of more than 4000 airports (METAR and TAF reports).

The available stations are represented by yellow and red dots on the map.

Hover mouse over dot to see the name of the station.

Then click to see weather observations and forecasts.

To change the map : click on the green buttons with a black cross to zoom in, on the green button with a dash to zoom out, or on the green arrows for adjacent maps.


METAR-TAF: